Temp: 4.7°C   Baro: 1017.2mb
  Wind: 0.0mph   Dir: NNW (342°)
  Rain: 0.0mm (0.0mm/hr)
  Solar: 0W/m2  Hum: 83%

Historic data

Bath Spa Weather Station Historical Data
Daily Summary for October 17, 2021 Units:  Metric    English   Both
Daily Weekly Monthly Yearly Custom
  High: Low: Average:
Temperature: 18.2 °C 10.9 °C 13.5 °C
Dew Point: 13.8 °C 9.7 °C 11.7 °C
Humidity: 94% 69.3% 86%
Wind Speed: 12.6km/h 0km/h 3.1km/h
Wind Gust: 22.5km/h - -
Wind- - SSW
Pressure: 1017.8 hPa 1015.8 hPa -
Precipitation: 0 mm    
Historical Graphs
 
 
Tabular Data for October 17, 2021
Time Temperature Dew Point Pressure Wind Wind Speed Wind Gust Humidity Rainfall Rate (Hourly) solar
00:04 11.3 °C 10.3 °C 1017.8 hPa SSW 1.1 km/h 3.2 km/h 90.8% 0 mm 0 W/m2
00:09 11.2 °C 10.3 °C 1017.8 hPa SSW 0.8 km/h 3.2 km/h 90.8% 0 mm 0 W/m2
00:14 11.2 °C 10.3 °C 1017.8 hPa SSW 0.3 km/h 3.2 km/h 91% 0 mm 0 W/m2
00:19 11.2 °C 10.3 °C 1017.8 hPa SSW 0.8 km/h 3.2 km/h 91% 0 mm 0 W/m2
00:24 11.2 °C 10.3 °C 1017.8 hPa SSW 0.6 km/h 4.8 km/h 91% 0 mm 0 W/m2
00:29 11.2 °C 10.3 °C 1017.8 hPa SSW 1.3 km/h 3.2 km/h 91% 0 mm 0 W/m2
00:34 11.2 °C 10.3 °C 1017.5 hPa SSW 0.6 km/h 3.2 km/h 91% 0 mm 0 W/m2
00:39 11.3 °C 10.4 °C 1017.5 hPa SSW 0.3 km/h 1.6 km/h 91% 0 mm 0 W/m2
00:43 11.3 °C 10.3 °C 1017.5 hPa SSW 1.9 km/h 3.2 km/h 91% 0 mm 0 W/m2
00:49 11.2 °C 10.3 °C 1017.5 hPa SSW 0.8 km/h 3.2 km/h 91% 0 mm 0 W/m2
00:54 11.2 °C 10.3 °C 1017.8 hPa SSW 2.1 km/h 6.4 km/h 91.2% 0 mm 0 W/m2
00:59 11.3 °C 10.6 °C 1017.5 hPa SSW 1.4 km/h 4.8 km/h 92% 0 mm 0 W/m2
01:04 11.3 °C 10.5 °C 1017.5 hPa SSW 3.4 km/h 6.4 km/h 92% 0 mm 0 W/m2
01:09 11.3 °C 10.4 °C 1017.5 hPa SSW 2.6 km/h 6.4 km/h 92% 0 mm 0 W/m2
01:14 11.2 °C 10.4 °C 1017.5 hPa SSW 2.6 km/h 4.8 km/h 92% 0 mm 0 W/m2
01:19 11.2 °C 10.4 °C 1017.5 hPa SSW 1.1 km/h 4.8 km/h 92% 0 mm 0 W/m2
01:24 11.2 °C 10.4 °C 1017.5 hPa SSW 3.9 km/h 4.8 km/h 92% 0 mm 0 W/m2
01:29 11.3 °C 10.5 °C 1017.2 hPa SSW 4.7 km/h 8 km/h 92% 0 mm 0 W/m2
01:34 11.3 °C 10.5 °C 1017.2 hPa SSW 4 km/h 9.7 km/h 92% 0 mm 0 W/m2
01:39 11.4 °C 10.6 °C 1017.2 hPa SSW 5.1 km/h 11.3 km/h 92% 0 mm 0 W/m2
01:44 11.4 °C 10.7 °C 1017.2 hPa SSW 4.8 km/h 8 km/h 92% 0 mm 0 W/m2
01:49 11.4 °C 10.6 °C 1017.2 hPa SSW 2.1 km/h 8 km/h 92% 0 mm 0 W/m2
01:54 11.4 °C 10.6 °C 1017.2 hPa SSW 3.5 km/h 6.4 km/h 92% 0 mm 0 W/m2
01:59 11.4 °C 10.6 °C 1017.2 hPa SSW 3.7 km/h 8 km/h 92% 0 mm 0 W/m2
02:04 11.4 °C 10.6 °C 1017.2 hPa SSW 3.2 km/h 6.4 km/h 92% 0 mm 0 W/m2
02:09 11.6 °C 10.8 °C 1017.2 hPa SSW 3.2 km/h 8 km/h 92% 0 mm 0 W/m2
02:14 11.6 °C 10.8 °C 1017.2 hPa SSW 1.9 km/h 4.8 km/h 92% 0 mm 0 W/m2
02:19 11.6 °C 10.8 °C 1017.2 hPa SSW 1 km/h 3.2 km/h 92% 0 mm 0 W/m2
02:24 11.6 °C 10.8 °C 1017.2 hPa SSW 1.9 km/h 3.2 km/h 92% 0 mm 0 W/m2
02:29 11.4 °C 10.7 °C 1017.2 hPa SSW 1.8 km/h 4.8 km/h 92.2% 0 mm 0 W/m2
02:34 11.4 °C 10.8 °C 1016.8 hPa SSW 2.3 km/h 4.8 km/h 93% 0 mm 0 W/m2
02:39 11.3 °C 10.7 °C 1016.8 hPa SSW 2.3 km/h 4.8 km/h 93% 0 mm 0 W/m2
02:44 11.3 °C 10.7 °C 1016.8 hPa SSW 2.6 km/h 4.8 km/h 93% 0 mm 0 W/m2
02:49 11.3 °C 10.7 °C 1016.8 hPa SSW 2.1 km/h 4.8 km/h 93% 0 mm 0 W/m2
02:54 11.3 °C 10.7 °C 1016.8 hPa SSW 1 km/h 3.2 km/h 93% 0 mm 0 W/m2
02:59 11.3 °C 10.7 °C 1016.8 hPa SSW 2.3 km/h 6.4 km/h 93% 0 mm 0 W/m2
03:03 11.4 °C 10.8 °C 1016.8 hPa SSW 1.9 km/h 4.8 km/h 93% 0 mm 0 W/m2
03:09 11.4 °C 10.8 °C 1016.8 hPa SSW 1.6 km/h 3.2 km/h 93% 0 mm 0 W/m2
03:14 11.4 °C 10.8 °C 1016.8 hPa SSW 1.9 km/h 4.8 km/h 93% 0 mm 0 W/m2
03:19 11.5 °C 10.9 °C 1016.8 hPa SSW 1 km/h 4.8 km/h 93% 0 mm 0 W/m2
03:24 11.6 °C 11 °C 1016.8 hPa SSW 1 km/h 3.2 km/h 93% 0 mm 0 W/m2
03:29 11.5 °C 10.9 °C 1016.8 hPa SSW 0.3 km/h 3.2 km/h 93% 0 mm 0 W/m2
03:34 11.6 °C 10.9 °C 1016.8 hPa SSW 2.1 km/h 4.8 km/h 93% 0 mm 0 W/m2
03:39 11.6 °C 11 °C 1016.8 hPa SSW 1.6 km/h 3.2 km/h 93% 0 mm 0 W/m2
03:44 11.7 °C 11.1 °C 1016.8 hPa SSW 2.1 km/h 4.8 km/h 93% 0 mm 0 W/m2
03:49 11.7 °C 11.1 °C 1016.5 hPa SSW 2.7 km/h 8 km/h 93% 0 mm 0 W/m2
03:54 11.8 °C 11.2 °C 1016.5 hPa SSW 1.6 km/h 4.8 km/h 93% 0 mm 0 W/m2
03:59 11.8 °C 11.2 °C 1016.5 hPa SSW 1.4 km/h 4.8 km/h 93% 0 mm 0 W/m2
04:04 11.8 °C 11.2 °C 1016.5 hPa SSW 1.4 km/h 3.2 km/h 93% 0 mm 0 W/m2
04:09 11.8 °C 11.2 °C 1016.5 hPa SSW 2.1 km/h 4.8 km/h 93% 0 mm 0 W/m2
04:14 11.7 °C 11.2 °C 1016.5 hPa SSW 2.7 km/h 6.4 km/h 93% 0 mm 0 W/m2
04:19 11.7 °C 11.1 °C 1016.5 hPa SSW 1.9 km/h 3.2 km/h 93% 0 mm 0 W/m2
04:24 11.8 °C 11.2 °C 1016.5 hPa SSW 1.8 km/h 3.2 km/h 93% 0 mm 0 W/m2
04:29 11.7 °C 11.1 °C 1016.5 hPa SSW 2.3 km/h 4.8 km/h 93% 0 mm 0 W/m2
04:34 11.7 °C 11.1 °C 1016.5 hPa SSW 3.9 km/h 6.4 km/h 93% 0 mm 0 W/m2
04:39 11.7 °C 11.2 °C 1016.1 hPa SSW 3.9 km/h 6.4 km/h 93% 0 mm 0 W/m2
04:44 11.8 °C 11.4 °C 1016.1 hPa SSW 3.9 km/h 8 km/h 94% 0 mm 0 W/m2
04:49 11.8 °C 11.4 °C 1016.1 hPa SSW 1.9 km/h 4.8 km/h 94% 0 mm 0 W/m2
04:54 11.8 °C 11.4 °C 1016.1 hPa SSW 1.6 km/h 4.8 km/h 94% 0 mm 0 W/m2
04:59 11.8 °C 11.4 °C 1016.1 hPa SSW 0.6 km/h 4.8 km/h 94% 0 mm 0 W/m2
05:04 11.9 °C 11.5 °C 1016.1 hPa SSW 1 km/h 3.2 km/h 94% 0 mm 0 W/m2
05:09 11.9 °C 11.5 °C 1016.1 hPa SSW 0.6 km/h 6.4 km/h 94% 0 mm 0 W/m2
05:14 11.9 °C 11.4 °C 1016.1 hPa Calm   1.6 km/h 93.8% 0 mm 0 W/m2
05:19 11.9 °C 11.4 °C 1016.1 hPa Calm     93.8% 0 mm 0 W/m2
05:24 11.9 °C 11.5 °C 1016.1 hPa Calm     94% 0 mm 0 W/m2
05:29 11.9 °C 11.5 °C 1016.1 hPa SSW 1 km/h 3.2 km/h 94% 0 mm 0 W/m2
05:34 11.9 °C 11.5 °C 1016.1 hPa SSW 0.3 km/h 1.6 km/h 94% 0 mm 0 W/m2
05:39 11.9 °C 11.5 °C 1016.1 hPa SSW 1.3 km/h 3.2 km/h 94% 0 mm 0 W/m2
05:44 11.8 °C 11.4 °C 1016.1 hPa SSW 0.6 km/h 3.2 km/h 94% 0 mm 0 W/m2
05:49 11.8 °C 11.4 °C 1016.1 hPa Calm   1.6 km/h 94% 0 mm 0 W/m2
05:54 11.8 °C 11.4 °C 1016.1 hPa SSW 4.5 km/h 6.4 km/h 94% 0 mm 0 W/m2
05:59 11.8 °C 11.4 °C 1016.1 hPa SSW 1 km/h 6.4 km/h 94% 0 mm 0 W/m2
06:04 11.8 °C 11.5 °C 1016.1 hPa Calm     94% 0 mm 0 W/m2
06:09 11.9 °C 11.5 °C 1016.1 hPa Calm     94% 0 mm 0 W/m2
06:14 11.8 °C 11.4 °C 1016.1 hPa Calm     94% 0 mm 0 W/m2
06:19 11.8 °C 11.4 °C 1016.1 hPa SSW 0.3 km/h 3.2 km/h 94% 0 mm 0 W/m2
06:24 11.8 °C 11.4 °C 1016.1 hPa SSW 0.6 km/h 3.2 km/h 94% 0 mm 0 W/m2
06:29 11.8 °C 11.4 °C 1016.1 hPa Calm   3.2 km/h 94% 0 mm 0 W/m2
06:34 11.9 °C 11.5 °C 1016.1 hPa Calm   1.6 km/h 94% 0 mm 0 W/m2
06:39 11.9 °C 11.5 °C 1016.1 hPa Calm     94% 0 mm 0 W/m2
06:44 11.8 °C 11.4 °C 1016.1 hPa SSW 0.8 km/h 3.2 km/h 94% 0 mm 0 W/m2
06:49 11.8 °C 11.4 °C 1016.1 hPa SSW 0.6 km/h 3.2 km/h 94% 0 mm 0 W/m2
06:54 11.8 °C 11.4 °C 1016.1 hPa SSW 0.3 km/h 1.6 km/h 94% 0 mm 0 W/m2
06:59 11.8 °C 11.4 °C 1016.1 hPa Calm     94% 0 mm 0 W/m2
07:04 11.8 °C 11.4 °C 1016.1 hPa SSW 0.3 km/h 1.6 km/h 94% 0 mm 0 W/m2
07:09 11.8 °C 11.4 °C 1016.1 hPa Calm   1.6 km/h 94% 0 mm 0 W/m2
07:14 11.8 °C 11.4 °C 1016.1 hPa Calm     94% 0 mm 0 W/m2
07:19 11.8 °C 11.4 °C 1016.1 hPa Calm     94% 0 mm 0 W/m2
07:24 11.8 °C 11.4 °C 1016.1 hPa Calm     94% 0 mm 0 W/m2
07:29 11.9 °C 11.5 °C 1016.1 hPa Calm     94% 0 mm 0 W/m2
07:34 11.9 °C 11.5 °C 1016.1 hPa Calm     94% 0 mm 0 W/m2
07:39 12 °C 11.6 °C 1016.1 hPa Calm     94% 0 mm 0 W/m2
07:44 12.2 °C 11.8 °C 1016.1 hPa SSW 2.1 km/h 4.8 km/h 94% 0 mm 0 W/m2
07:49 12.5 °C 12.1 °C 1016.1 hPa SSW 2.1 km/h 4.8 km/h 94% 0 mm 0 W/m2
07:53 12.6 °C 12.2 °C 1016.1 hPa SSW 1.1 km/h 4.8 km/h 94% 0 mm 5 W/m2
07:59 12.4 °C 12 °C 1016.1 hPa SSW 2.9 km/h 4.8 km/h 94% 0 mm 5 W/m2
08:04 12.3 °C 11.9 °C 1016.1 hPa SSW 0.6 km/h 4.8 km/h 94% 0 mm 7 W/m2
08:09 12.3 °C 11.9 °C 1016.1 hPa SSW 0.6 km/h 4.8 km/h 94% 0 mm 9 W/m2
08:14 12.3 °C 11.9 °C 1016.1 hPa Calm   3.2 km/h 94% 0 mm 12 W/m2
08:19 12.4 °C 12 °C 1016.1 hPa Calm   3.2 km/h 94% 0 mm 16 W/m2
08:24 12.5 °C 12.1 °C 1016.1 hPa SSW 1 km/h 4.8 km/h 94% 0 mm 19 W/m2
08:29 12.4 °C 12 °C 1016.1 hPa SSW 3.2 km/h 4.8 km/h 94% 0 mm 25 W/m2
08:34 12.4 °C 12 °C 1016.1 hPa SSW 1.9 km/h 4.8 km/h 94% 0 mm 30 W/m2
08:39 12.4 °C 12 °C 1016.5 hPa SSW 1.6 km/h 6.4 km/h 94% 0 mm 30 W/m2
08:44 12.4 °C 12 °C 1016.5 hPa SSW 2.7 km/h 4.8 km/h 94% 0 mm 30 W/m2
08:49 12.4 °C 12.1 °C 1016.5 hPa SSW 2.6 km/h 8 km/h 94% 0 mm 30 W/m2
08:54 12.6 °C 12.2 °C 1016.5 hPa SSW 2.9 km/h 8 km/h 94% 0 mm 28 W/m2
08:59 12.6 °C 12.2 °C 1016.5 hPa SSW 4.5 km/h 9.7 km/h 94% 0 mm 26 W/m2
09:04 12.6 °C 12.2 °C 1016.5 hPa SSW 4.8 km/h 8 km/h 94% 0 mm 26 W/m2
09:09 12.7 °C 12.3 °C 1016.5 hPa SSW 3.9 km/h 8 km/h 94% 0 mm 32 W/m2
09:14 12.7 °C 12.3 °C 1016.5 hPa SSW 4.7 km/h 9.7 km/h 94% 0 mm 40 W/m2
09:19 12.7 °C 12.3 °C 1016.5 hPa SSW 4 km/h 6.4 km/h 94% 0 mm 46 W/m2
09:24 12.8 °C 12.3 °C 1016.5 hPa SSW 3.5 km/h 8 km/h 93.6% 0 mm 54 W/m2
09:29 12.8 °C 12.2 °C 1016.5 hPa SSW 3.9 km/h 8 km/h 93% 0 mm 51 W/m2
09:34 12.8 °C 12.3 °C 1016.5 hPa SSW 0.8 km/h 6.4 km/h 93% 0 mm 49 W/m2
09:39 12.9 °C 12.4 °C 1016.5 hPa SSW 1.3 km/h 4.8 km/h 93.6% 0 mm 62 W/m2
09:44 12.9 °C 12.3 °C 1016.5 hPa SSW 0.3 km/h 4.8 km/h 93% 0 mm 74 W/m2
09:49 13 °C 12.4 °C 1016.5 hPa SSW 1.6 km/h 3.2 km/h 93% 0 mm 74 W/m2
09:54 13.1 °C 12.4 °C 1016.5 hPa SSW 1.3 km/h 6.4 km/h 93% 0 mm 69 W/m2
09:59 13.1 °C 12.5 °C 1016.8 hPa SSW 2.6 km/h 4.8 km/h 93% 0 mm 90 W/m2
10:04 13.2 °C 12.6 °C 1016.8 hPa SSW 1.6 km/h 4.8 km/h 93% 0 mm 91 W/m2
10:08 13.2 °C 12.6 °C 1016.8 hPa SSW 4.3 km/h 9.7 km/h 93% 0 mm 98 W/m2
10:14 13.2 °C 12.7 °C 1016.8 hPa SSW 2.1 km/h 9.7 km/h 93% 0 mm 105 W/m2
10:19 13.3 °C 12.7 °C 1016.8 hPa SSW 2.1 km/h 6.4 km/h 93% 0 mm 105 W/m2
10:24 13.4 °C 12.7 °C 1016.8 hPa SSW 3.9 km/h 8 km/h 92.4% 0 mm 127 W/m2
10:29 13.4 °C 12.6 °C 1016.8 hPa SSW 4.7 km/h 8 km/h 92% 0 mm 128 W/m2
10:34 13.5 °C 12.7 °C 1016.8 hPa SSW 4.2 km/h 8 km/h 92% 0 mm 123 W/m2
10:39 13.6 °C 12.8 °C 1016.5 hPa SSW 1.8 km/h 4.8 km/h 92% 0 mm 114 W/m2
10:44 13.6 °C 12.8 °C 1016.5 hPa SSW 1.6 km/h 4.8 km/h 92% 0 mm 120 W/m2
10:49 13.7 °C 12.9 °C 1016.8 hPa SSW 1.3 km/h 4.8 km/h 92% 0 mm 127 W/m2
10:54 13.8 °C 13 °C 1016.8 hPa SSW 2.3 km/h 3.2 km/h 92% 0 mm 137 W/m2
10:59 13.8 °C 13 °C 1016.8 hPa SSW 2.1 km/h 4.8 km/h 92% 0 mm 155 W/m2
11:04 13.9 °C 13.1 °C 1016.8 hPa SSW 0.3 km/h 3.2 km/h 92% 0 mm 158 W/m2
11:09 14 °C 13.2 °C 1016.8 hPa SSW 0.6 km/h 3.2 km/h 92% 0 mm 165 W/m2
11:14 14.1 °C 13.2 °C 1016.5 hPa SSW 2.3 km/h 6.4 km/h 91.2% 0 mm 190 W/m2
11:19 14.2 °C 13.2 °C 1016.5 hPa SSW 2.9 km/h 6.4 km/h 91% 0 mm 204 W/m2
11:24 14.4 °C 13.4 °C 1016.5 hPa SSW 3.9 km/h 8 km/h 91% 0 mm 218 W/m2
11:29 14.5 °C 13.4 °C 1016.5 hPa SSW 5.8 km/h 11.3 km/h 90.6% 0 mm 230 W/m2
11:34 14.6 °C 13.5 °C 1016.5 hPa SSW 7.9 km/h 17.7 km/h 90% 0 mm 221 W/m2
11:39 14.7 °C 13.5 °C 1016.8 hPa SSW 9 km/h 16.1 km/h 89.4% 0 mm 207 W/m2
11:44 14.7 °C 13.4 °C 1016.8 hPa SSW 6.4 km/h 9.7 km/h 89% 0 mm 193 W/m2
11:49 14.8 °C 13.6 °C 1016.8 hPa SSW 5.3 km/h 9.7 km/h 89% 0 mm 190 W/m2
11:53 14.9 °C 13.4 °C 1016.5 hPa SSW 9.2 km/h 16.1 km/h 88% 0 mm 202 W/m2
11:59 14.9 °C 13.3 °C 1016.8 hPa SSW 3.1 km/h 14.5 km/h 87.4% 0 mm 197 W/m2
12:04 15.2 °C 13.5 °C 1016.8 hPa SSW 6.4 km/h 11.3 km/h 87.4% 0 mm 190 W/m2
12:09 15.2 °C 13.5 °C 1016.8 hPa SSW 4.5 km/h 11.3 km/h 87% 0 mm 192 W/m2
12:14 15.2 °C 13.4 °C 1016.8 hPa SSW 7.7 km/h 14.5 km/h 86% 0 mm 204 W/m2
12:19 15.3 °C 13.4 °C 1016.8 hPa SSW 5 km/h 12.9 km/h 86% 0 mm 237 W/m2
12:24 15.4 °C 13.5 °C 1016.8 hPa SSW 7.2 km/h 16.1 km/h 85.6% 0 mm 269 W/m2
12:29 15.6 °C 13.6 °C 1016.8 hPa SSW 5.6 km/h 14.5 km/h 85% 0 mm 598 W/m2
12:34 15.7 °C 13.5 °C 1016.8 hPa SSW 5.1 km/h 12.9 km/h 84% 0 mm 392 W/m2
12:39 15.9 °C 13.5 °C 1016.8 hPa SSW 8.9 km/h 16.1 km/h 83% 0 mm 262 W/m2
12:44 16 °C 13.4 °C 1016.8 hPa SSW 8.2 km/h 12.9 km/h 82% 0 mm 621 W/m2
12:49 16.3 °C 13.6 °C 1016.8 hPa SSW 9.5 km/h 14.5 km/h 81.4% 0 mm 580 W/m2
12:54 16.3 °C 13.4 °C 1016.8 hPa SSW 12.1 km/h 22.5 km/h 80.2% 0 mm 534 W/m2
12:59 16.5 °C 13.4 °C 1016.8 hPa SSW 8.7 km/h 16.1 km/h 79.6% 0 mm 534 W/m2
13:04 16.6 °C 13.4 °C 1016.8 hPa SSW 7.1 km/h 17.7 km/h 79% 0 mm 587 W/m2
13:09 16.7 °C 13.4 °C 1016.8 hPa SSW 9.3 km/h 17.7 km/h 79% 0 mm 554 W/m2
13:14 16.4 °C 13.2 °C 1016.8 hPa SSW 8.2 km/h 17.7 km/h 79% 0 mm 206 W/m2
13:19 16.5 °C 13.4 °C 1016.5 hPa SSW 6.9 km/h 16.1 km/h 79.6% 0 mm 429 W/m2
13:24 16.4 °C 13.2 °C 1016.5 hPa SSW 7.2 km/h 12.9 km/h 79.2% 0 mm 499 W/m2
13:29 16.6 °C 13.5 °C 1016.5 hPa SSW 6 km/h 9.7 km/h 79.6% 0 mm 538 W/m2
13:34 17 °C 13.8 °C 1016.5 hPa South 7.6 km/h 20.9 km/h 79% 0 mm 596 W/m2
13:39 17.1 °C 13.7 °C 1016.5 hPa South 9.7 km/h 17.7 km/h 78.2% 0 mm 575 W/m2
13:44 16.8 °C 13.4 °C 1016.5 hPa South 6.6 km/h 14.5 km/h 78% 0 mm 167 W/m2
13:49 16.8 °C 13.5 °C 1016.5 hPa SSW 6 km/h 9.7 km/h 78.8% 0 mm 506 W/m2
13:54 17.3 °C 13.7 °C 1016.5 hPa SSW 6.3 km/h 16.1 km/h 77.2% 0 mm 504 W/m2
13:59 17.3 °C 13.6 °C 1016.5 hPa SSW 7.9 km/h 16.1 km/h 76.4% 0 mm 230 W/m2
14:04 17.2 °C 13.5 °C 1016.5 hPa SW 9.8 km/h 17.7 km/h 76.6% 0 mm 461 W/m2
14:09 17.2 °C 13.4 °C 1016.5 hPa SW 6.6 km/h 14.5 km/h 76.2% 0 mm 461 W/m2
14:14 17.3 °C 13.7 °C 1016.5 hPa SW 8.4 km/h 14.5 km/h 76.8% 0 mm 438 W/m2
14:19 17.2 °C 13.4 °C 1016.5 hPa SW 7.9 km/h 12.9 km/h 76% 0 mm 128 W/m2
14:24 17.3 °C 13.4 °C 1016.1 hPa SW 9 km/h 14.5 km/h 75.6% 0 mm 499 W/m2
14:29 17.8 °C 13.5 °C 1016.1 hPa SW 8.4 km/h 17.7 km/h 73.4% 0 mm 468 W/m2
14:34 17.7 °C 13.1 °C 1016.1 hPa SW 9.8 km/h 19.3 km/h 72% 0 mm 450 W/m2
14:39 17.5 °C 13 °C 1016.1 hPa SW 12.6 km/h 17.7 km/h 72.6% 0 mm 455 W/m2
14:44 17.4 °C 13.1 °C 1016.1 hPa SW 9.2 km/h 22.5 km/h 73% 0 mm 436 W/m2
14:49 17.6 °C 13.2 °C 1016.1 hPa SW 6.6 km/h 16.1 km/h 73% 0 mm 422 W/m2
14:54 17.4 °C 13.1 °C 1016.1 hPa SW 10 km/h 20.9 km/h 73.2% 0 mm 446 W/m2
14:59 17.6 °C 13.2 °C 1016.1 hPa SSW 5.3 km/h 12.9 km/h 73.2% 0 mm 148 W/m2
15:04 17.3 °C 13.1 °C 1016.1 hPa SSW 4.8 km/h 14.5 km/h 73.8% 0 mm 265 W/m2
15:09 17.4 °C 13.2 °C 1016.1 hPa SSW 6.8 km/h 11.3 km/h 73.8% 0 mm 265 W/m2
15:14 17.6 °C 13.2 °C 1016.1 hPa SSW 6 km/h 16.1 km/h 72.8% 0 mm 427 W/m2
15:19 17.8 °C 13.3 °C 1016.1 hPa SSW 6 km/h 11.3 km/h 72.4% 0 mm 411 W/m2
15:24 17.9 °C 13.3 °C 1016.1 hPa SSW 6.4 km/h 14.5 km/h 72% 0 mm 396 W/m2
15:29 17.9 °C 13.3 °C 1016.1 hPa SSW 6.1 km/h 12.9 km/h 72% 0 mm 390 W/m2
15:34 18.1 °C 13.3 °C 1016.1 hPa SSW 6.8 km/h 12.9 km/h 71.6% 0 mm 373 W/m2
15:39 18.2 °C 13.1 °C 1016.1 hPa SSW 5.8 km/h 14.5 km/h 70% 0 mm 315 W/m2
15:44 18.2 °C 13.1 °C 1016.1 hPa SSW 6.9 km/h 14.5 km/h 69.6% 0 mm 302 W/m2
15:49 18.2 °C 13.1 °C 1016.1 hPa SSW 4.3 km/h 12.9 km/h 70% 0 mm 295 W/m2
15:54 18.1 °C 13.1 °C 1016.1 hPa SSW 9 km/h 14.5 km/h 70.4% 0 mm 287 W/m2
15:59 17.8 °C 12.8 °C 1016.1 hPa SW 10.8 km/h 20.9 km/h 70.2% 0 mm 267 W/m2
16:04 17.7 °C 12.7 °C 1016.1 hPa SW 8.4 km/h 16.1 km/h 70.2% 0 mm 253 W/m2
16:09 17.7 °C 12.4 °C 1016.5 hPa SSW 8.4 km/h 16.1 km/h 69.3% 0 mm 239 W/m2
16:14 17.7 °C 12.5 °C 1016.5 hPa SSW 7.7 km/h 17.7 km/h 69.4% 0 mm 230 W/m2
16:19 17.7 °C 12.6 °C 1016.1 hPa SSW 6.3 km/h 11.3 km/h 70% 0 mm 216 W/m2
16:24 17.7 °C 12.6 °C 1016.1 hPa SSW 6.8 km/h 17.7 km/h 70% 0 mm 207 W/m2
16:29 17.6 °C 12.5 °C 1016.1 hPa SSW 7.7 km/h 12.9 km/h 70% 0 mm 193 W/m2
16:34 17.6 °C 12.5 °C 1016.1 hPa SSW 5.1 km/h 12.9 km/h 70% 0 mm 181 W/m2
16:39 17.6 °C 12.5 °C 1016.1 hPa SSW 5.8 km/h 11.3 km/h 70% 0 mm 171 W/m2
16:44 17.6 °C 12.6 °C 1016.1 hPa SSW 5.3 km/h 16.1 km/h 70.4% 0 mm 149 W/m2
16:49 17.3 °C 12.7 °C 1016.1 hPa SSW 6.4 km/h 16.1 km/h 71.6% 0 mm 141 W/m2
16:54 17.3 °C 12.7 °C 1016.1 hPa SSW 2.6 km/h 9.7 km/h 72% 0 mm 127 W/m2
16:59 17.3 °C 12.7 °C 1016.1 hPa SSW 5.1 km/h 9.7 km/h 72% 0 mm 114 W/m2
17:04 17.2 °C 12.6 °C 1016.1 hPa SSW 6.3 km/h 11.3 km/h 72% 0 mm 107 W/m2
17:09 17 °C 12.4 °C 1015.8 hPa SSW 6.3 km/h 11.3 km/h 72% 0 mm 90 W/m2
17:14 16.9 °C 12.4 °C 1015.8 hPa SSW 6.8 km/h 12.9 km/h 72.4% 0 mm 79 W/m2
17:19 16.8 °C 12.2 °C 1015.8 hPa SSW 7.1 km/h 14.5 km/h 72% 0 mm 77 W/m2
17:24 16.9 °C 12.3 °C 1016.1 hPa SSW 3.9 km/h 9.7 km/h 72% 0 mm 60 W/m2
17:29 16.8 °C 12.3 °C 1016.1 hPa SSW 3.9 km/h 8 km/h 72.2% 0 mm 42 W/m2
17:34 16.8 °C 12.4 °C 1016.1 hPa SSW 2.1 km/h 8 km/h 73% 0 mm 33 W/m2
17:39 16.7 °C 12.3 °C 1016.1 hPa SSW 6.3 km/h 12.9 km/h 73% 0 mm 28 W/m2
17:44 16.4 °C 12.1 °C 1016.1 hPa SSW 4.5 km/h 8 km/h 73% 0 mm 21 W/m2
17:49 16.4 °C 12.2 °C 1016.1 hPa SSW 3.2 km/h 8 km/h 74% 0 mm 16 W/m2
17:54 16.3 °C 12.1 °C 1016.1 hPa SSW 3.4 km/h 8 km/h 74% 0 mm 12 W/m2
17:59 16.2 °C 12 °C 1016.5 hPa Calm   6.4 km/h 74% 0 mm 9 W/m2
18:04 16.2 °C 12.1 °C 1016.5 hPa SSW 0.3 km/h 4.8 km/h 74.4% 0 mm 7 W/m2
18:09 16.2 °C 12.2 °C 1016.5 hPa Calm   3.2 km/h 75% 0 mm 5 W/m2
18:14 16 °C 12.1 °C 1016.5 hPa SSW 2.6 km/h 6.4 km/h 75% 0 mm 0 W/m2
18:19 15.8 °C 11.9 °C 1016.5 hPa SSW 2.1 km/h 4.8 km/h 75% 0 mm 0 W/m2
18:24 15.7 °C 12.1 °C 1016.8 hPa SSW 1.9 km/h 4.8 km/h 76% 0 mm 0 W/m2
18:29 15.5 °C 11.8 °C 1016.8 hPa SSW 0.6 km/h 4.8 km/h 76% 0 mm 0 W/m2
18:34 15.3 °C 11.7 °C 1016.8 hPa SSW 0.6 km/h 4.8 km/h 76% 0 mm 0 W/m2
18:39 15.2 °C 11.7 °C 1016.8 hPa SSW 1.3 km/h 4.8 km/h 76.8% 0 mm 0 W/m2
18:44 15.1 °C 11.6 °C 1016.8 hPa Calm     77% 0 mm 0 W/m2
18:49 15.1 °C 11.6 °C 1016.8 hPa Calm     77% 0 mm 0 W/m2
18:54 14.8 °C 11.5 °C 1016.8 hPa Calm     77.6% 0 mm 0 W/m2
18:59 14.7 °C 11.4 °C 1016.8 hPa Calm     78% 0 mm 0 W/m2
19:04 14.3 °C 11.1 °C 1016.8 hPa Calm     78.2% 0 mm 0 W/m2
19:09 14 °C 10.9 °C 1016.8 hPa Calm     79% 0 mm 0 W/m2
19:14 13.8 °C 10.8 °C 1016.8 hPa Calm     79.8% 0 mm 0 W/m2
19:19 13.7 °C 10.9 °C 1016.8 hPa Calm   1.6 km/h 80.8% 0 mm 0 W/m2
19:24 13.6 °C 10.9 °C 1016.8 hPa Calm   3.2 km/h 81% 0 mm 0 W/m2
19:29 13.4 °C 10.9 °C 1016.8 hPa Calm     82% 0 mm 0 W/m2
19:34 13.2 °C 10.8 °C 1016.8 hPa Calm     82.2% 0 mm 0 W/m2
19:39 13.2 °C 10.9 °C 1016.8 hPa Calm   1.6 km/h 83% 0 mm 0 W/m2
19:44 13.1 °C 10.8 °C 1017.2 hPa SSW 0.3 km/h 3.2 km/h 83% 0 mm 0 W/m2
19:49 12.9 °C 10.7 °C 1017.2 hPa SSW 0.3 km/h 3.2 km/h 83.2% 0 mm 0 W/m2
19:54 12.8 °C 10.7 °C 1017.2 hPa Calm     84% 0 mm 0 W/m2
19:59 12.8 °C 10.7 °C 1017.2 hPa Calm     84% 0 mm 0 W/m2
20:04 12.8 °C 10.7 °C 1017.2 hPa SSW 0.6 km/h 3.2 km/h 84% 0 mm 0 W/m2
20:09 12.8 °C 10.7 °C 1017.2 hPa SSW 0.8 km/h 3.2 km/h 84% 0 mm 0 W/m2
20:14 12.8 °C 10.7 °C 1017.2 hPa Calm   4.8 km/h 84.2% 0 mm 0 W/m2
20:19 12.8 °C 10.7 °C 1017.2 hPa SSW 1.1 km/h 3.2 km/h 84% 0 mm 0 W/m2
20:24 12.7 °C 10.6 °C 1017.2 hPa SSW 0.3 km/h 3.2 km/h 84% 0 mm 0 W/m2
20:29 12.5 °C 10.5 °C 1017.2 hPa SSW 0.6 km/h 3.2 km/h 84.6% 0 mm 0 W/m2
20:34 12.4 °C 10.4 °C 1017.2 hPa SSW 1 km/h 4.8 km/h 85% 0 mm 0 W/m2
20:39 12.4 °C 10.4 °C 1017.2 hPa SSW 1.9 km/h 4.8 km/h 85% 0 mm 0 W/m2
20:44 12.4 °C 10.4 °C 1017.2 hPa SSW 2.9 km/h 6.4 km/h 85% 0 mm 0 W/m2
20:49 12.3 °C 10.4 °C 1017.5 hPa SSW 1.6 km/h 4.8 km/h 85.6% 0 mm 0 W/m2
20:54 12.3 °C 10.4 °C 1017.2 hPa SSW 2.1 km/h 3.2 km/h 86% 0 mm 0 W/m2
20:59 12.2 °C 10.4 °C 1017.2 hPa SSW 2.7 km/h 4.8 km/h 86% 0 mm 0 W/m2
21:04 12.1 °C 10.3 °C 1017.2 hPa SSW 1.9 km/h 3.2 km/h 86% 0 mm 0 W/m2
21:09 12.1 °C 10.3 °C 1017.2 hPa SSW 1.4 km/h 4.8 km/h 86% 0 mm 0 W/m2
21:14 11.9 °C 10.2 °C 1017.2 hPa SSW 2.3 km/h 4.8 km/h 86% 0 mm 0 W/m2
21:19 11.9 °C 10.2 °C 1017.2 hPa SSW 3.9 km/h 6.4 km/h 86.6% 0 mm 0 W/m2
21:24 11.9 °C 10.3 °C 1017.5 hPa SSW 2.7 km/h 4.8 km/h 87% 0 mm 0 W/m2
21:29 11.9 °C 10.3 °C 1017.5 hPa SSW 0.8 km/h 4.8 km/h 87% 0 mm 0 W/m2
21:34 11.9 °C 10.3 °C 1017.5 hPa SSW 1.9 km/h 4.8 km/h 87% 0 mm 0 W/m2
21:39 11.9 °C 10.3 °C 1017.5 hPa SSW 4 km/h 8 km/h 87% 0 mm 0 W/m2
21:44 11.9 °C 10.3 °C 1017.5 hPa SSW 3.1 km/h 4.8 km/h 87% 0 mm 0 W/m2
21:49 11.9 °C 10.3 °C 1017.5 hPa SSW 2.9 km/h 4.8 km/h 87% 0 mm 0 W/m2
21:54 11.8 °C 10.2 °C 1017.5 hPa SSW 2.3 km/h 6.4 km/h 87% 0 mm 0 W/m2
21:59 11.7 °C 10.2 °C 1017.5 hPa SSW 2.7 km/h 6.4 km/h 87.3% 0 mm 0 W/m2
22:04 11.7 °C 10.3 °C 1017.8 hPa SSW 0.3 km/h 3.2 km/h 88% 0 mm 0 W/m2
22:09 11.7 °C 10.3 °C 1017.8 hPa SSW 0.3 km/h 1.6 km/h 88% 0 mm 0 W/m2
22:14 11.6 °C 10.2 °C 1017.8 hPa SSW 2.6 km/h 4.8 km/h 88% 0 mm 0 W/m2
22:19 11.4 °C 10 °C 1017.5 hPa SSW 1 km/h 4.8 km/h 88% 0 mm 0 W/m2
22:24 11.4 °C 10 °C 1017.8 hPa SSW 0.3 km/h 4.8 km/h 88% 0 mm 0 W/m2
22:29 11.3 °C 9.9 °C 1017.8 hPa SSW 0.6 km/h 3.2 km/h 88% 0 mm 0 W/m2
22:34 11.3 °C 9.9 °C 1017.8 hPa SSW 1.4 km/h 3.2 km/h 88% 0 mm 0 W/m2
22:39 11.2 °C 9.8 °C 1017.5 hPa SSW 1.3 km/h 3.2 km/h 88% 0 mm 0 W/m2
22:44 11.2 °C 9.8 °C 1017.5 hPa SSW 1.4 km/h 4.8 km/h 88.4% 0 mm 0 W/m2
22:49 11.2 °C 9.9 °C 1017.5 hPa SSW 0.6 km/h 4.8 km/h 89% 0 mm 0 W/m2
22:54 11.3 °C 10 °C 1017.8 hPa SSW 1.9 km/h 4.8 km/h 89% 0 mm 0 W/m2
22:59 11.3 °C 10 °C 1017.8 hPa SSW 2.7 km/h 6.4 km/h 89% 0 mm 0 W/m2
23:04 11.3 °C 10 °C 1017.8 hPa SSW 2.3 km/h 4.8 km/h 89% 0 mm 0 W/m2
23:09 11.3 °C 10 °C 1017.8 hPa SSW 2.4 km/h 4.8 km/h 89% 0 mm 0 W/m2
23:14 11.2 °C 9.9 °C 1017.8 hPa SSW 2.3 km/h 4.8 km/h 89% 0 mm 0 W/m2
23:19 11.2 °C 9.8 °C 1017.8 hPa SSW 2.1 km/h 6.4 km/h 89% 0 mm 0 W/m2
23:24 11.1 °C 9.8 °C 1017.8 hPa SSW 1.9 km/h 6.4 km/h 89% 0 mm 0 W/m2
23:29 11.2 °C 9.8 °C 1017.8 hPa SSW 2.6 km/h 4.8 km/h 89% 0 mm 0 W/m2
23:34 11.1 °C 9.9 °C 1017.8 hPa SSW 0.3 km/h 4.8 km/h 89.4% 0 mm 0 W/m2
23:39 11.1 °C 9.8 °C 1017.8 hPa SSW 1.6 km/h 4.8 km/h 89.4% 0 mm 0 W/m2
23:44 11.1 °C 9.7 °C 1017.8 hPa SSW 2.1 km/h 4.8 km/h 89% 0 mm 0 W/m2
23:49 11 °C 9.9 °C 1017.8 hPa SSW 0.3 km/h 3.2 km/h 90% 0 mm 0 W/m2
23:54 11 °C 9.9 °C 1017.8 hPa SSW 1.8 km/h 3.2 km/h 90% 0 mm 0 W/m2
23:59 10.9 °C 9.8 °C 1017.8 hPa SSW 1 km/h 4.8 km/h 90% 0 mm 0 W/m2
Bath Spa Weather
Compliments of Weather Underground - 2 mb